createdAt,value
2023-05-18T00:00:35.944Z,29.67
2023-05-18T00:03:17.030Z,34.47
2023-05-18T00:05:52.527Z,29.83
2023-05-18T00:08:27.469Z,30.07
2023-05-18T00:11:11.286Z,31.73
2023-05-18T00:13:48.721Z,31.43
2023-05-18T00:16:24.212Z,33.67
2023-05-18T00:19:06.386Z,30.97
2023-05-18T00:21:47.905Z,35.37
2023-05-18T00:24:23.986Z,32.90
2023-05-18T00:27:02.803Z,34.53
2023-05-18T00:29:43.886Z,30.17
2023-05-18T00:32:19.513Z,36.30
2023-05-18T00:35:21.312Z,41.27
2023-05-18T00:37:54.997Z,29.57
2023-05-18T00:40:31.943Z,36.37
2023-05-18T00:43:11.665Z,34.43
2023-05-18T00:49:37.094Z,43.10
2023-05-18T00:52:14.507Z,43.83
2023-05-18T00:54:49.325Z,40.80
2023-05-18T00:57:22.411Z,44.37
2023-05-18T00:59:58.938Z,37.53
2023-05-18T01:02:33.316Z,35.50
2023-05-18T01:05:07.520Z,36.40
2023-05-18T01:07:41.717Z,38.33
2023-05-18T01:10:18.189Z,35.43
2023-05-18T01:13:02.566Z,40.00
2023-05-18T01:15:45.466Z,34.13
2023-05-18T01:18:27.211Z,40.80
2023-05-18T01:21:12.830Z,44.00
2023-05-18T01:24:07.656Z,41.20
2023-05-18T01:26:51.858Z,44.10
2023-05-18T01:29:29.889Z,40.47
2023-05-18T01:32:05.334Z,38.07
2023-05-18T01:34:43.254Z,42.57
2023-05-18T01:37:20.226Z,37.77
2023-05-18T01:39:59.799Z,48.00
2023-05-18T01:42:42.435Z,43.43
2023-05-18T01:45:26.176Z,54.53
2023-05-18T01:48:07.158Z,45.33
2023-05-18T01:50:49.645Z,44.07
2023-05-18T01:53:31.944Z,39.23
2023-05-18T01:56:10.936Z,45.00
2023-05-18T01:58:51.407Z,41.27
2023-05-18T02:01:31.868Z,40.10
2023-05-18T02:04:12.097Z,45.10
2023-05-18T02:06:45.263Z,47.33
2023-05-18T02:09:22.327Z,42.17
2023-05-18T02:12:00.034Z,46.07
2023-05-18T02:14:40.521Z,48.30
2023-05-18T02:17:17.001Z,46.33
2023-05-18T02:19:51.145Z,43.10
2023-05-18T02:22:28.948Z,45.63
2023-05-18T02:25:07.593Z,50.47
2023-05-18T02:27:40.779Z,41.80
2023-05-18T02:30:23.125Z,37.93
2023-05-18T02:32:59.993Z,47.47
2023-05-18T02:35:35.719Z,48.87
2023-05-18T02:38:20.454Z,53.90
2023-05-18T02:40:58.884Z,49.77
2023-05-18T02:43:35.901Z,47.47
2023-05-18T02:46:11.744Z,44.20
2023-05-18T02:48:48.152Z,44.30
2023-05-18T02:51:25.491Z,43.87
2023-05-18T02:54:01.801Z,46.57
2023-05-18T02:56:39.964Z,46.77
2023-05-18T02:59:24.640Z,45.00
2023-05-18T03:02:03.286Z,41.97
2023-05-18T03:04:39.759Z,48.90
2023-05-18T03:07:16.948Z,55.53
2023-05-18T03:09:54.799Z,43.10
2023-05-18T03:12:30.583Z,44.60
2023-05-18T03:15:10.254Z,43.27
2023-05-18T03:17:53.751Z,43.13
2023-05-18T03:20:27.794Z,36.00
2023-05-18T03:23:07.480Z,43.93
2023-05-18T03:25:47.819Z,36.17
2023-05-18T03:28:28.615Z,40.67
2023-05-18T03:31:03.782Z,39.10
2023-05-18T03:33:59.666Z,34.57
2023-05-18T03:36:35.467Z,39.43
2023-05-18T03:39:17.955Z,38.43
2023-05-18T03:41:54.683Z,35.10
2023-05-18T03:44:41.437Z,38.13
2023-05-18T03:47:17.106Z,37.47
2023-05-18T03:50:27.153Z,33.07
2023-05-18T03:53:23.370Z,37.63
2023-05-18T03:55:58.388Z,46.10
2023-05-18T03:58:36.419Z,40.10
2023-05-18T04:01:12.248Z,36.33
2023-05-18T04:03:53.381Z,39.23
2023-05-18T04:06:41.754Z,42.13
2023-05-18T04:09:18.873Z,36.33
2023-05-18T04:11:55.014Z,41.00
2023-05-18T04:14:34.620Z,36.20
2023-05-18T04:17:11.709Z,42.23
2023-05-18T04:19:50.467Z,34.67
2023-05-18T04:22:50.060Z,32.63
2023-05-18T04:25:29.752Z,40.03
2023-05-18T04:28:05.786Z,41.57
2023-05-18T04:30:47.915Z,47.03
2023-05-18T04:33:29.682Z,42.07
2023-05-18T04:36:07.022Z,38.60
2023-05-18T04:38:50.117Z,37.10
2023-05-18T04:41:27.923Z,37.67
2023-05-18T04:44:07.489Z,34.57
2023-05-18T04:46:49.788Z,33.70
2023-05-18T04:49:28.530Z,34.30
2023-05-18T04:52:12.342Z,36.17
2023-05-18T04:54:50.962Z,33.97
2023-05-18T04:57:29.579Z,35.55
2023-05-18T05:00:09.986Z,35.80
2023-05-18T05:02:51.251Z,34.00
2023-05-18T05:05:33.808Z,34.23
2023-05-18T05:08:08.351Z,36.45
2023-05-18T05:10:48.668Z,40.00
2023-05-18T05:13:44.560Z,35.63
2023-05-18T05:16:22.039Z,36.00
2023-05-18T05:19:04.056Z,33.73
2023-05-18T05:21:39.664Z,34.23
2023-05-18T05:24:21.640Z,35.13
2023-05-18T05:27:02.709Z,33.63
2023-05-18T05:29:45.256Z,32.30
2023-05-18T05:32:27.932Z,33.67
2023-05-18T05:35:03.319Z,33.58
2023-05-18T05:37:40.080Z,30.83
2023-05-18T05:40:16.573Z,27.58
2023-05-18T05:43:01.695Z,28.03
2023-05-18T05:45:44.636Z,32.67
2023-05-18T05:48:29.859Z,27.13
2023-05-18T05:51:09.657Z,29.50
2023-05-18T05:53:49.103Z,29.27
2023-05-18T05:56:26.519Z,29.02
2023-05-18T05:59:09.597Z,24.92
2023-05-18T06:01:53.574Z,33.73
2023-05-18T06:04:39.696Z,27.17
2023-05-18T06:07:23.884Z,26.05
2023-05-18T06:10:03.557Z,31.17
2023-05-18T06:12:42.742Z,30.23
2023-05-18T06:15:25.431Z,33.65
2023-05-18T06:17:58.944Z,31.30
2023-05-18T06:20:36.720Z,30.30
2023-05-18T06:23:12.202Z,37.10
2023-05-18T06:26:06.568Z,34.60
2023-05-18T06:29:08.164Z,27.70
2023-05-18T06:32:23.827Z,31.77
2023-05-18T06:35:19.969Z,25.30
2023-05-18T06:38:03.528Z,35.00
2023-05-18T06:40:42.869Z,30.17
2023-05-18T06:43:30.646Z,30.45
2023-05-18T06:46:30.676Z,35.30
2023-05-18T06:49:17.308Z,37.88
2023-05-18T06:51:53.421Z,34.40
2023-05-18T06:54:34.776Z,31.90
2023-05-18T06:57:22.539Z,34.88
2023-05-18T07:00:01.366Z,36.33
2023-05-18T07:02:43.158Z,39.53
2023-05-18T07:05:27.141Z,36.85
2023-05-18T07:08:02.811Z,30.38
2023-05-18T07:10:59.246Z,30.00
2023-05-18T07:13:47.507Z,37.58
2023-05-18T07:16:35.790Z,35.95
2023-05-18T07:19:17.769Z,36.92
2023-05-18T07:22:01.576Z,37.38
2023-05-18T07:24:39.501Z,33.67
2023-05-18T07:27:20.841Z,28.13
2023-05-18T07:30:00.020Z,29.77
2023-05-18T07:32:35.649Z,37.63
2023-05-18T07:35:24.604Z,39.28
2023-05-18T07:38:04.375Z,38.83
2023-05-18T07:40:42.114Z,37.40
2023-05-18T07:43:25.937Z,38.58
2023-05-18T07:46:02.185Z,34.20
2023-05-18T07:48:41.022Z,34.40
2023-05-18T07:51:17.513Z,36.38
2023-05-18T07:53:56.300Z,32.95
2023-05-18T07:56:39.605Z,41.78
2023-05-18T07:59:18.356Z,34.93
2023-05-18T08:01:53.702Z,32.13
2023-05-18T08:04:34.259Z,36.00
2023-05-18T08:07:10.805Z,35.57
2023-05-18T08:10:02.919Z,33.37
2023-05-18T08:12:40.680Z,32.67
2023-05-18T08:15:29.268Z,32.73
2023-05-18T08:18:03.976Z,26.03
2023-05-18T08:20:38.928Z,29.97
2023-05-18T08:23:13.123Z,31.27
2023-05-18T08:25:54.269Z,32.87
2023-05-18T08:28:29.683Z,26.38
2023-05-18T08:31:06.078Z,35.00
2023-05-18T08:33:43.774Z,27.53
2023-05-18T08:36:22.449Z,23.43
2023-05-18T08:39:03.379Z,25.13
2023-05-18T08:41:48.360Z,27.07
2023-05-18T08:44:26.479Z,26.00
2023-05-18T08:47:01.673Z,26.07
2023-05-18T08:49:38.360Z,27.97
2023-05-18T08:52:24.192Z,29.53
2023-05-18T08:55:06.538Z,27.52
2023-05-18T08:57:57.694Z,29.47
2023-05-18T09:00:43.703Z,29.33
2023-05-18T09:03:18.204Z,26.23
2023-05-18T09:06:00.170Z,27.37
2023-05-18T09:08:38.613Z,33.03
2023-05-18T09:11:18.196Z,28.00
2023-05-18T09:13:56.304Z,24.80
2023-05-18T09:16:37.880Z,29.10
2023-05-18T09:19:26.234Z,33.83
2023-05-18T09:22:05.668Z,31.20
2023-05-18T09:24:41.872Z,28.30
2023-05-18T09:27:18.575Z,32.87
2023-05-18T09:30:10.262Z,34.50
2023-05-18T09:32:52.806Z,29.80
2023-05-18T09:35:39.241Z,36.63
2023-05-18T09:38:15.476Z,30.00
2023-05-18T09:41:00.580Z,36.50
2023-05-18T09:43:38.263Z,32.17
2023-05-18T09:46:15.490Z,36.37
2023-05-18T09:49:03.053Z,32.37
2023-05-18T09:51:45.199Z,39.97
2023-05-18T09:54:24.389Z,38.13
2023-05-18T09:57:10.462Z,33.40
2023-05-18T09:59:55.306Z,33.30
2023-05-18T10:02:36.788Z,38.07
2023-05-18T10:08:16.010Z,36.50
2023-05-18T10:11:05.477Z,40.50
2023-05-18T10:14:12.116Z,39.47
2023-05-18T10:17:00.290Z,31.63
2023-05-18T10:19:48.614Z,31.10
2023-05-18T10:22:33.326Z,36.50
2023-05-18T10:25:15.793Z,32.10
2023-05-18T10:27:56.161Z,31.67
2023-05-18T10:30:37.991Z,31.07
2023-05-18T10:33:29.190Z,28.40
2023-05-18T10:36:16.690Z,32.97
2023-05-18T10:38:56.812Z,31.00
2023-05-18T10:41:34.525Z,36.67
2023-05-18T10:44:12.561Z,36.60
2023-05-18T10:46:49.950Z,32.33
2023-05-18T10:49:30.025Z,34.53
2023-05-18T10:52:16.331Z,29.70
2023-05-18T10:54:57.019Z,34.40
2023-05-18T10:57:40.809Z,39.47
2023-05-18T11:00:17.574Z,36.50
2023-05-18T11:02:59.693Z,32.10
2023-05-18T11:05:38.769Z,33.60
2023-05-18T11:08:17.915Z,31.87
2023-05-18T11:10:54.090Z,32.90
2023-05-18T11:13:37.221Z,34.77
2023-05-18T11:16:13.001Z,38.67
2023-05-18T11:18:55.296Z,37.83
2023-05-18T11:22:01.145Z,42.20
2023-05-18T11:24:51.061Z,37.20
2023-05-18T11:27:30.520Z,36.03
2023-05-18T11:30:15.124Z,35.07
2023-05-18T11:32:57.793Z,43.20
2023-05-18T11:35:38.082Z,37.63
2023-05-18T11:38:19.563Z,39.27
2023-05-18T11:40:57.922Z,40.80
2023-05-18T11:43:38.048Z,41.30
2023-05-18T11:46:28.692Z,36.27
2023-05-18T11:55:34.843Z,34.83
2023-05-18T11:58:21.052Z,37.27
2023-05-18T12:01:06.770Z,32.27
2023-05-18T12:03:52.133Z,30.57
2023-05-18T12:06:29.558Z,29.87
2023-05-18T12:09:09.265Z,32.47
2023-05-18T12:11:46.866Z,37.40
2023-05-18T12:14:37.215Z,28.53
2023-05-18T12:17:26.032Z,35.37
2023-05-18T12:20:08.006Z,30.03
2023-05-18T12:22:46.039Z,31.93
2023-05-18T12:25:24.929Z,35.33
2023-05-18T12:28:01.731Z,30.33
2023-05-18T12:30:56.152Z,39.80
2023-05-18T12:33:42.166Z,34.33
2023-05-18T12:36:25.972Z,37.60
2023-05-18T12:39:03.476Z,31.27
2023-05-18T12:41:38.872Z,35.60
2023-05-18T12:44:25.999Z,36.43
2023-05-18T12:47:05.896Z,31.67
2023-05-18T12:49:47.312Z,37.43
2023-05-18T12:52:30.573Z,34.43
2023-05-18T12:55:12.336Z,36.50
2023-05-18T12:58:08.370Z,35.50
2023-05-18T13:00:50.532Z,32.53
2023-05-18T13:06:18.037Z,37.80
2023-05-18T13:09:00.469Z,38.30
2023-05-18T13:11:38.619Z,36.13
2023-05-18T13:14:37.037Z,35.80
2023-05-18T13:17:12.422Z,33.83
2023-05-18T13:20:03.528Z,38.50
2023-05-18T13:22:50.737Z,32.67
2023-05-18T13:25:52.836Z,33.43
2023-05-18T13:31:57.341Z,39.67
2023-05-18T13:34:35.365Z,37.07
2023-05-18T13:37:18.128Z,39.53
2023-05-18T13:40:01.413Z,34.10
2023-05-18T13:42:41.330Z,36.10
2023-05-18T13:45:31.240Z,35.53
2023-05-18T13:48:16.115Z,36.97
2023-05-18T13:51:01.318Z,38.13
2023-05-18T13:53:46.118Z,34.87
2023-05-18T13:56:30.612Z,35.27
2023-05-18T13:59:13.098Z,36.70
2023-05-18T14:02:10.196Z,38.87
2023-05-18T14:04:50.442Z,33.33
2023-05-18T14:10:28.789Z,34.33
2023-05-18T14:13:12.482Z,35.10
2023-05-18T14:15:55.345Z,44.30
2023-05-18T14:18:42.256Z,36.87
2023-05-18T14:21:19.995Z,34.70
2023-05-18T14:24:02.858Z,33.40
2023-05-18T14:26:57.028Z,38.07
2023-05-18T14:29:47.777Z,37.40
2023-05-18T14:32:29.399Z,40.60
2023-05-18T14:35:05.682Z,40.60
2023-05-18T14:37:49.589Z,38.43
2023-05-18T14:40:43.565Z,40.53
2023-05-18T14:43:26.151Z,37.50
2023-05-18T14:46:23.163Z,37.73
2023-05-18T14:48:58.406Z,32.13
2023-05-18T14:51:45.994Z,36.70
2023-05-18T14:54:27.617Z,33.03
2023-05-18T14:57:26.531Z,36.87
2023-05-18T15:00:12.904Z,39.07
2023-05-18T15:02:51.876Z,40.23
2023-05-18T15:05:43.505Z,38.60
2023-05-18T15:08:25.771Z,37.50
2023-05-18T15:11:25.127Z,44.10
2023-05-18T15:14:06.059Z,38.07
2023-05-18T15:16:51.792Z,39.33
2023-05-18T15:19:46.355Z,38.63
2023-05-18T15:22:49.319Z,35.33
2023-05-18T15:25:33.450Z,39.67
2023-05-18T15:28:16.242Z,36.93
2023-05-18T15:30:52.488Z,42.77
2023-05-18T15:33:39.105Z,41.60
2023-05-18T15:36:21.154Z,39.67
2023-05-18T15:39:02.382Z,47.97
2023-05-18T15:41:42.979Z,49.90
2023-05-18T15:44:30.748Z,47.03
2023-05-18T15:47:10.111Z,42.77
2023-05-18T15:49:49.644Z,45.00
2023-05-18T15:52:28.187Z,42.17
2023-05-18T15:55:04.311Z,50.50
2023-05-18T15:57:51.117Z,41.33
2023-05-18T16:00:31.356Z,44.40
2023-05-18T16:03:11.299Z,44.73
2023-05-18T16:06:01.222Z,46.17
2023-05-18T16:08:37.185Z,36.40
2023-05-18T16:11:15.296Z,46.70
2023-05-18T16:13:57.198Z,40.03
2023-05-18T16:16:40.605Z,40.53
2023-05-18T16:19:17.055Z,40.23
2023-05-18T16:21:57.327Z,46.10
2023-05-18T16:24:33.795Z,47.30
2023-05-18T16:27:11.740Z,45.67
2023-05-18T16:29:48.754Z,44.47
2023-05-18T16:32:27.155Z,48.03
2023-05-18T16:35:02.649Z,53.47
2023-05-18T16:37:45.549Z,44.17
2023-05-18T16:40:22.365Z,45.57
2023-05-18T16:43:02.129Z,51.40
2023-05-18T16:45:41.422Z,49.70
2023-05-18T16:48:16.836Z,54.67
2023-05-18T16:50:51.628Z,52.77
2023-05-18T16:53:29.542Z,50.63
2023-05-18T16:56:10.334Z,54.10
2023-05-18T16:58:44.908Z,53.97
2023-05-18T17:01:30.986Z,55.80
2023-05-18T17:04:07.017Z,55.23
2023-05-18T17:06:42.679Z,54.97
2023-05-18T17:09:26.807Z,52.13
2023-05-18T17:12:07.150Z,54.67
2023-05-18T17:14:43.088Z,53.60
2023-05-18T17:17:29.482Z,57.23
2023-05-18T17:20:09.608Z,59.67
2023-05-18T17:22:45.339Z,55.73
2023-05-18T17:25:22.522Z,60.63
2023-05-18T17:28:01.511Z,63.37
2023-05-18T17:30:40.195Z,64.43
2023-05-18T17:33:17.059Z,66.57
2023-05-18T17:35:56.378Z,62.23
2023-05-18T17:38:32.028Z,64.57
2023-05-18T17:41:14.185Z,63.93
2023-05-18T17:43:49.166Z,64.30
2023-05-18T17:46:25.111Z,67.37
2023-05-18T17:49:00.733Z,63.03
2023-05-18T17:51:36.850Z,63.13
2023-05-18T17:54:13.641Z,65.07
2023-05-18T17:56:51.812Z,61.50
2023-05-18T17:59:26.460Z,65.93
2023-05-18T18:02:03.846Z,69.73
2023-05-18T18:04:37.041Z,67.60
2023-05-18T18:07:12.241Z,60.93
2023-05-18T18:09:50.128Z,68.47
2023-05-18T18:12:30.177Z,65.13
2023-05-18T18:15:08.893Z,66.47
2023-05-18T18:17:41.821Z,66.47
2023-05-18T18:20:16.553Z,69.73
2023-05-18T18:22:51.126Z,66.87
2023-05-18T18:25:25.269Z,71.13
2023-05-18T18:28:01.038Z,75.20
2023-05-18T18:30:35.672Z,70.60
2023-05-18T18:33:23.913Z,71.67
2023-05-18T18:36:03.837Z,69.87
2023-05-18T18:38:38.183Z,66.23
2023-05-18T18:41:14.792Z,69.83
2023-05-18T18:43:49.425Z,77.50
2023-05-18T18:46:23.288Z,64.47
2023-05-18T18:48:57.388Z,70.97
2023-05-18T18:51:31.376Z,69.03
2023-05-18T18:54:05.061Z,70.17
2023-05-18T18:56:38.715Z,71.83
2023-05-18T18:59:19.018Z,70.50
2023-05-18T19:01:51.851Z,68.43
2023-05-18T19:04:24.933Z,64.97
2023-05-18T19:07:05.332Z,67.73
2023-05-18T19:09:42.619Z,67.80
2023-05-18T19:12:16.464Z,69.67
2023-05-18T19:14:50.922Z,74.50
2023-05-18T19:17:25.659Z,72.40
2023-05-18T19:19:59.758Z,70.07
2023-05-18T19:22:32.587Z,79.50
2023-05-18T19:25:05.940Z,73.50
2023-05-18T19:27:42.545Z,66.33
2023-05-18T19:30:22.704Z,69.37
2023-05-18T19:32:58.355Z,68.50
2023-05-18T19:35:32.598Z,63.67
2023-05-18T19:38:05.996Z,68.27
2023-05-18T19:40:40.195Z,69.53
2023-05-18T19:43:15.740Z,62.07
2023-05-18T19:45:52.825Z,66.30
2023-05-18T19:48:28.703Z,69.07
2023-05-18T19:51:06.841Z,71.27
2023-05-18T19:53:44.897Z,73.80
2023-05-18T19:56:19.292Z,68.33
2023-05-18T19:58:54.242Z,75.57
2023-05-18T20:01:30.378Z,67.50
2023-05-18T20:04:13.040Z,69.23
2023-05-18T20:06:48.672Z,73.43
2023-05-18T20:09:23.231Z,76.73
2023-05-18T20:11:57.805Z,74.13
2023-05-18T20:14:34.727Z,69.03
2023-05-18T20:17:12.691Z,75.93
2023-05-18T20:19:53.490Z,73.93
2023-05-18T20:22:28.399Z,74.57
2023-05-18T20:25:07.930Z,78.97
2023-05-18T20:27:43.988Z,72.60
2023-05-18T20:30:17.906Z,75.33
2023-05-18T20:33:00.146Z,69.03
2023-05-18T20:35:33.991Z,75.33
2023-05-18T20:38:12.671Z,75.03
2023-05-18T20:40:46.611Z,74.00
2023-05-18T20:43:23.083Z,74.80
2023-05-18T20:45:59.455Z,77.00
2023-05-18T20:48:35.141Z,75.63
2023-05-18T20:51:09.969Z,79.07
2023-05-18T20:53:46.496Z,71.20
2023-05-18T20:56:24.110Z,69.43
2023-05-18T20:59:00.392Z,78.00
2023-05-18T21:01:40.374Z,66.57
2023-05-18T21:04:19.475Z,77.47
2023-05-18T21:06:56.204Z,69.80
2023-05-18T21:09:30.142Z,71.20
2023-05-18T21:12:05.208Z,68.83
2023-05-18T21:14:38.713Z,74.07
2023-05-18T21:17:13.199Z,64.60
2023-05-18T21:19:50.285Z,64.43
2023-05-18T21:22:25.803Z,66.03
2023-05-18T21:25:00.302Z,73.23
2023-05-18T21:27:35.319Z,65.60
2023-05-18T21:30:09.095Z,59.73
2023-05-18T21:32:45.940Z,70.70
2023-05-18T21:35:24.929Z,64.07
2023-05-18T21:37:58.988Z,61.93
2023-05-18T21:40:33.575Z,67.40
2023-05-18T21:43:09.816Z,58.03
2023-05-18T21:45:43.406Z,54.17
2023-05-18T21:48:19.947Z,62.03
2023-05-18T21:50:55.284Z,62.60
2023-05-18T21:53:39.578Z,63.00
2023-05-18T21:56:15.826Z,58.73
2023-05-18T21:58:51.980Z,61.67
2023-05-18T22:01:26.553Z,57.43
2023-05-18T22:04:02.998Z,67.20
2023-05-18T22:06:43.367Z,62.20
2023-05-18T22:09:18.115Z,57.30
2023-05-18T22:11:50.853Z,65.70
2023-05-18T22:14:23.773Z,62.40
2023-05-18T22:16:58.572Z,60.47
2023-05-18T22:19:32.923Z,61.80
2023-05-18T22:22:11.622Z,64.93
2023-05-18T22:24:50.232Z,64.20
2023-05-18T22:27:24.396Z,60.87
2023-05-18T22:30:00.358Z,57.60
2023-05-18T22:32:34.470Z,61.83
2023-05-18T22:35:08.994Z,68.57
2023-05-18T22:37:48.975Z,59.57
2023-05-18T22:40:25.958Z,62.27
2023-05-18T22:43:00.899Z,65.30
2023-05-18T22:45:35.473Z,59.57
2023-05-18T22:48:08.824Z,63.80
2023-05-18T22:50:44.915Z,59.33
2023-05-18T22:53:21.445Z,59.17
2023-05-18T22:55:55.227Z,68.80
2023-05-18T22:58:29.841Z,66.93
2023-05-18T23:01:05.951Z,70.53
2023-05-18T23:03:39.446Z,57.47
2023-05-18T23:06:12.662Z,66.40
2023-05-18T23:08:48.224Z,62.17
2023-05-18T23:11:23.319Z,62.27
2023-05-18T23:13:59.382Z,59.67
2023-05-18T23:16:33.048Z,60.10
2023-05-18T23:19:13.161Z,59.70
2023-05-18T23:21:47.512Z,58.60
2023-05-18T23:24:26.303Z,59.03
2023-05-18T23:27:00.652Z,60.57
2023-05-18T23:29:37.357Z,51.80
2023-05-18T23:32:13.259Z,49.28
2023-05-18T23:34:50.018Z,48.47
2023-05-18T23:37:27.995Z,46.92
2023-05-18T23:40:06.122Z,47.17
2023-05-18T23:42:40.798Z,44.50
2023-05-18T23:45:15.139Z,42.88
2023-05-18T23:47:49.736Z,39.17
2023-05-18T23:50:26.534Z,48.22
2023-05-18T23:53:09.250Z,43.03
2023-05-18T23:55:46.327Z,43.75
2023-05-18T23:58:21.026Z,42.63
